Time;durP1;ratioP1;P1;durP2;ratioP2;P2;SDS_P1;SDS_P2;PMS_P1;PMS_P2;Temp;Humidity;BMP_temperature;BMP_pressure;BME280_temperature;BME280_humidity;BME280_pressure;Samples;Min_cycle;Max_cycle;Signal;HPM_P1;HPM_P2
2023/08/05 00:00:02;;;;;;;4.90;4.60;;;19.60;99.90;;;;;;5117514;28;20468;-80
2023/08/05 00:02:30;;;;;;;5.07;4.67;;;19.60;99.90;;;;;;5117407;28;20950;-82
2023/08/05 00:04:57;;;;;;;7.10;4.60;;;19.50;99.90;;;;;;5117054;28;20521;-80
2023/08/05 00:07:24;;;;;;;4.20;3.90;;;19.50;99.90;;;;;;5117091;28;20468;-82
2023/08/05 00:09:52;;;;;;;4.07;3.70;;;19.50;99.90;;;;;;5116535;28;20812;-79
2023/08/05 00:12:18;;;;;;;3.57;3.30;;;19.50;99.90;;;;;;5117159;28;20474;-83
2023/08/05 00:14:46;;;;;;;3.53;3.23;;;19.50;99.90;;;;;;5116614;28;20500;-82
2023/08/05 00:17:15;;;;;;;4.63;3.90;;;19.50;99.90;;;;;;5117373;28;20954;-79
2023/08/05 00:19:44;;;;;;;5.00;4.60;;;19.40;99.90;;;;;;5116027;28;20490;-80
2023/08/05 00:22:11;;;;;;;4.00;3.70;;;19.40;99.90;;;;;;5119776;27;20824;-83
2023/08/05 00:24:38;;;;;;;8.03;4.47;;;19.40;99.90;;;;;;5137282;27;20532;-84
2023/08/05 00:27:12;;;;;;;3.57;3.27;;;19.40;99.90;;;;;;5138454;27;20777;-81
2023/08/05 00:29:40;;;;;;;4.00;3.70;;;19.40;99.90;;;;;;5137313;27;20464;-81
2023/08/05 00:32:08;;;;;;;4.63;3.40;;;19.30;99.90;;;;;;5138545;27;20467;-83
2023/08/05 00:34:35;;;;;;;5.10;3.80;;;19.30;99.90;;;;;;5137480;27;20467;-83
2023/08/05 00:37:04;;;;;;;4.03;3.73;;;19.30;99.90;;;;;;5136507;27;20468;-81
2023/08/05 00:39:31;;;;;;;3.10;2.77;;;19.30;99.90;;;;;;5137379;27;20491;-81
2023/08/05 00:41:59;;;;;;;3.80;3.50;;;19.30;99.90;;;;;;5137301;27;20447;-83
2023/08/05 00:44:27;;;;;;;4.60;4.17;;;19.20;99.90;;;;;;5133161;27;20491;-81
2023/08/05 00:46:54;;;;;;;4.07;3.70;;;19.20;99.90;;;;;;5137179;27;20948;-82
2023/08/05 00:49:21;;;;;;;4.60;4.20;;;19.20;99.90;;;;;;5137770;27;20960;-82
2023/08/05 00:51:49;;;;;;;3.80;3.57;;;19.20;99.90;;;;;;5136637;27;20479;-81
2023/08/05 00:54:18;;;;;;;4.53;4.13;;;19.20;99.90;;;;;;5135464;27;20558;-80
2023/08/05 00:56:46;;;;;;;81.50;67.10;;;19.10;99.90;;;;;;5126255;27;20571;-82
2023/08/05 00:59:14;;;;;;;40.23;33.27;;;19.10;99.90;;;;;;5136176;27;20817;-82
2023/08/05 01:01:41;;;;;;;20.30;17.47;;;19.20;99.90;;;;;;5135731;27;20471;-82
2023/08/05 01:04:08;;;;;;;59.47;48.83;;;19.20;99.90;;;;;;5135316;27;21047;-80
2023/08/05 01:06:35;;;;;;;15.60;14.03;;;19.20;99.90;;;;;;5136187;27;20486;-82
2023/08/05 01:09:03;;;;;;;8.63;7.57;;;19.20;99.90;;;;;;5136619;27;20468;-82
2023/08/05 01:11:32;;;;;;;5.97;5.17;;;19.20;99.90;;;;;;5136896;27;20460;-80
2023/08/05 01:13:59;;;;;;;5.70;5.17;;;19.20;99.90;;;;;;5136309;27;20542;-82
2023/08/05 01:16:26;;;;;;;4.70;4.40;;;19.20;99.90;;;;;;5136033;27;20476;-82
2023/08/05 01:18:55;;;;;;;4.20;3.90;;;19.20;99.90;;;;;;5136419;27;20472;-83
2023/08/05 01:21:33;;;;;;;5.67;3.80;;;19.10;99.90;;;;;;5126700;27;20994;-83
2023/08/05 01:24:10;;;;;;;4.27;3.90;;;19.10;99.90;;;;;;5136023;27;20550;-80
2023/08/05 01:26:39;;;;;;;4.03;3.73;;;19.10;99.90;;;;;;5136537;27;20562;-79
2023/08/05 01:29:07;;;;;;;4.33;3.80;;;19.00;99.90;;;;;;5136215;27;20535;-80
2023/08/05 01:31:36;;;;;;;3.87;3.57;;;19.00;99.90;;;;;;5136711;27;20464;-80
2023/08/05 01:34:03;;;;;;;4.03;3.63;;;19.00;99.90;;;;;;5135968;27;20478;-80
2023/08/05 01:36:32;;;;;;;4.80;3.60;;;18.90;99.90;;;;;;5136353;27;20526;-80
2023/08/05 01:38:59;;;;;;;5.13;3.43;;;18.90;99.90;;;;;;5135422;27;20506;-81
2023/08/05 01:41:26;;;;;;;3.90;3.63;;;18.90;99.90;;;;;;5135786;27;20487;-82
2023/08/05 01:43:54;;;;;;;3.17;2.87;;;18.90;99.90;;;;;;5135794;27;20945;-81
2023/08/05 01:46:24;;;;;;;3.47;3.27;;;18.90;99.90;;;;;;5135841;27;20459;-80
2023/08/05 01:48:53;;;;;;;3.70;3.40;;;18.80;99.90;;;;;;5135617;27;20478;-80
2023/08/05 01:51:22;;;;;;;7.00;3.40;;;18.80;99.90;;;;;;5136056;27;20480;-80
2023/08/05 01:53:49;;;;;;;3.10;2.90;;;18.80;99.90;;;;;;5135999;27;20493;-81
2023/08/05 01:56:16;;;;;;;4.83;3.90;;;18.70;99.90;;;;;;5135644;27;20456;-80
2023/08/05 01:58:43;;;;;;;4.00;3.70;;;18.70;99.90;;;;;;5135877;27;20470;-80
2023/08/05 02:01:15;;;;;;;3.20;2.97;;;18.70;99.90;;;;;;5135492;27;20456;-82
2023/08/05 02:03:42;;;;;;;3.93;3.63;;;18.70;99.90;;;;;;5136679;27;20471;-81
2023/08/05 02:06:09;;;;;;;3.47;3.20;;;18.70;99.90;;;;;;5135268;27;20464;-80
2023/08/05 02:08:36;;;;;;;4.90;3.33;;;18.70;99.90;;;;;;5135244;27;20468;-83
2023/08/05 02:11:06;;;;;;;6.43;4.00;;;18.70;99.90;;;;;;5135765;27;20534;-80
2023/08/05 02:13:32;;;;;;;4.10;3.70;;;18.70;99.90;;;;;;5137121;27;20483;-82
2023/08/05 02:15:59;;;;;;;3.27;2.97;;;18.60;99.90;;;;;;5135392;27;20795;-82
2023/08/05 02:18:28;;;;;;;7.17;4.43;;;18.60;99.90;;;;;;5135966;27;20863;-82
2023/08/05 02:20:55;;;;;;;4.30;3.90;;;18.60;99.90;;;;;;5134610;27;20464;-80
2023/08/05 02:23:22;;;;;;;5.77;5.00;;;18.60;99.90;;;;;;5135701;27;20471;-82
2023/08/05 02:25:49;;;;;;;6.10;5.50;;;18.50;99.90;;;;;;5135811;27;20528;-82
2023/08/05 02:28:16;;;;;;;5.67;5.10;;;18.50;99.90;;;;;;5135053;27;20526;-82
2023/08/05 02:30:43;;;;;;;5.23;4.73;;;18.50;99.90;;;;;;5135429;27;20808;-80
2023/08/05 02:33:10;;;;;;;5.10;4.70;;;18.50;99.90;;;;;;5134584;27;20479;-80
2023/08/05 02:35:38;;;;;;;4.07;3.67;;;18.40;99.90;;;;;;5134399;27;20468;-80
2023/08/05 02:38:05;;;;;;;5.03;4.53;;;18.40;99.90;;;;;;5134904;27;20535;-82
2023/08/05 02:40:34;;;;;;;5.33;4.20;;;18.40;99.90;;;;;;5135201;27;20551;-80
2023/08/05 02:43:01;;;;;;;6.17;5.67;;;18.40;99.90;;;;;;5135117;27;20471;-80
2023/08/05 02:45:28;;;;;;;7.27;5.00;;;18.40;99.90;;;;;;5134448;27;20475;-80
2023/08/05 02:47:55;;;;;;;6.23;5.63;;;18.40;99.90;;;;;;5135521;27;20494;-82
2023/08/05 02:50:24;;;;;;;4.93;4.50;;;18.30;99.90;;;;;;5134194;27;20485;-82
2023/08/05 02:52:53;;;;;;;7.23;4.40;;;18.40;99.90;;;;;;5135392;27;20528;-82
2023/08/05 02:55:19;;;;;;;4.57;4.03;;;18.30;99.90;;;;;;5134662;27;20444;-82
2023/08/05 02:57:47;;;;;;;11.20;5.00;;;18.30;99.90;;;;;;5134728;27;20555;-82
2023/08/05 03:00:14;;;;;;;6.43;5.90;;;18.20;99.90;;;;;;5134472;27;20468;-82
2023/08/05 03:02:41;;;;;;;5.80;5.30;;;18.30;99.90;;;;;;5135391;27;20463;-80
2023/08/05 03:05:08;;;;;;;6.90;6.20;;;18.30;99.90;;;;;;5133805;27;20471;-81
2023/08/05 03:07:35;;;;;;;8.20;7.00;;;18.20;99.90;;;;;;5134696;27;20468;-80
2023/08/05 03:10:04;;;;;;;9.00;5.70;;;18.20;99.90;;;;;;5133892;27;20498;-80
2023/08/05 03:12:31;;;;;;;5.83;5.23;;;18.20;99.90;;;;;;5134252;27;20464;-80
2023/08/05 03:14:58;;;;;;;5.77;4.83;;;18.20;99.90;;;;;;5134260;27;20474;-80
2023/08/05 03:17:25;;;;;;;4.93;4.53;;;18.20;99.90;;;;;;5134193;27;20474;-82
2023/08/05 03:19:52;;;;;;;6.83;5.60;;;18.20;99.90;;;;;;5134722;27;20503;-80
2023/08/05 03:22:29;;;;;;;5.87;5.30;;;18.10;99.90;;;;;;5133969;27;20847;-82
2023/08/05 03:24:56;;;;;;;6.50;4.90;;;18.10;99.90;;;;;;5133981;27;20473;-80
2023/08/05 03:27:24;;;;;;;6.20;5.17;;;18.00;99.90;;;;;;5134123;27;20869;-82
2023/08/05 03:29:51;;;;;;;6.03;4.73;;;18.00;99.90;;;;;;5135142;27;20463;-80
2023/08/05 03:32:18;;;;;;;4.67;4.23;;;18.00;99.90;;;;;;5133896;27;20494;-82
2023/08/05 03:34:45;;;;;;;5.60;4.90;;;18.00;99.90;;;;;;5134319;27;20472;-82
2023/08/05 03:37:12;;;;;;;5.60;4.73;;;17.90;99.90;;;;;;5133641;27;20468;-80
2023/08/05 03:39:39;;;;;;;5.20;4.80;;;17.90;99.90;;;;;;5134303;27;20469;-80
2023/08/05 03:42:06;;;;;;;7.40;4.73;;;17.90;99.90;;;;;;5133616;27;20539;-82
2023/08/05 03:44:35;;;;;;;6.00;4.80;;;17.90;99.90;;;;;;5133671;27;20487;-81
2023/08/05 03:47:03;;;;;;;7.20;5.20;;;17.80;99.90;;;;;;5134345;27;20476;-81
2023/08/05 03:49:29;;;;;;;6.03;5.37;;;17.80;99.90;;;;;;5134116;27;20458;-82
2023/08/05 03:51:56;;;;;;;5.90;5.40;;;17.80;99.90;;;;;;5134133;27;20516;-82
2023/08/05 03:54:24;;;;;;;4.80;4.33;;;17.80;99.90;;;;;;5133878;27;20535;-80
2023/08/05 03:56:51;;;;;;;4.80;4.40;;;17.80;99.90;;;;;;5134194;27;20512;-80
2023/08/05 03:59:20;;;;;;;9.40;4.40;;;17.80;99.90;;;;;;5133871;27;20472;-80
2023/08/05 04:01:48;;;;;;;6.17;4.20;;;17.80;99.90;;;;;;5133945;27;20475;-80
2023/08/05 04:04:15;;;;;;;7.40;5.17;;;17.80;99.90;;;;;;5133494;27;20525;-82
2023/08/05 04:06:42;;;;;;;5.20;4.70;;;17.80;99.90;;;;;;5124270;27;20551;-80
2023/08/05 04:09:09;;;;;;;5.43;4.77;;;17.80;99.90;;;;;;5133764;27;20464;-80
2023/08/05 04:11:45;;;;;;;4.10;3.80;;;17.80;99.90;;;;;;5133943;27;20468;-82
2023/08/05 04:14:14;;;;;;;5.47;4.83;;;17.70;99.90;;;;;;5133350;27;20475;-80
2023/08/05 04:16:42;;;;;;;5.20;4.77;;;17.80;99.90;;;;;;5134066;27;20494;-80
2023/08/05 04:19:13;;;;;;;4.63;4.00;;;17.70;99.90;;;;;;5132593;27;20485;-82
2023/08/05 04:21:46;;;;;;;4.70;4.30;;;17.70;99.90;;;;;;5133370;27;20455;-80
2023/08/05 04:24:13;;;;;;;4.80;3.80;;;17.70;99.90;;;;;;5133899;27;20468;-81
2023/08/05 04:26:41;;;;;;;4.00;3.60;;;17.70;99.90;;;;;;5133228;27;20462;-82
2023/08/05 04:29:10;;;;;;;4.73;3.97;;;17.70;99.90;;;;;;5138388;27;20488;-80
2023/08/05 04:31:42;;;;;;;5.27;3.90;;;17.70;99.90;;;;;;5134678;27;20459;-82
2023/08/05 04:34:10;;;;;;;7.60;3.80;;;17.70;99.90;;;;;;5134318;27;20520;-82
2023/08/05 04:36:41;;;;;;;4.87;4.53;;;17.80;99.90;;;;;;5134150;27;20555;-80
2023/08/05 04:39:07;;;;;;;8.30;4.00;;;17.80;99.90;;;;;;5139630;27;20546;-80
2023/08/05 04:41:34;;;;;;;4.43;3.93;;;17.80;99.90;;;;;;5137756;27;20459;-80
2023/08/05 04:44:02;;;;;;;5.83;3.73;;;17.80;99.90;;;;;;5138276;27;20487;-80
2023/08/05 04:46:29;;;;;;;5.60;3.93;;;17.80;99.90;;;;;;5138039;27;20467;-81
2023/08/05 04:48:56;;;;;;;5.07;3.60;;;17.80;99.90;;;;;;5138712;27;20468;-82
2023/08/05 04:51:28;;;;;;;4.57;3.90;;;17.90;99.90;;;;;;5126990;27;20814;-80
2023/08/05 04:53:56;;;;;;;5.10;4.30;;;17.90;99.90;;;;;;5137148;27;20471;-79
2023/08/05 04:56:25;;;;;;;5.67;3.60;;;17.90;99.90;;;;;;5136577;27;20478;-80
2023/08/05 04:58:55;;;;;;;3.90;3.33;;;17.90;99.90;;;;;;5138525;27;20948;-81
2023/08/05 05:01:22;;;;;;;3.90;3.60;;;18.00;99.90;;;;;;5138871;27;21041;-81
2023/08/05 05:03:51;;;;;;;3.43;3.13;;;18.00;99.90;;;;;;5139251;27;20498;-82
2023/08/05 05:06:18;;;;;;;4.97;4.30;;;18.00;99.90;;;;;;5140740;27;20520;-82
2023/08/05 05:08:46;;;;;;;4.03;3.73;;;18.10;99.90;;;;;;5138420;27;20535;-82
2023/08/05 05:11:14;;;;;;;3.60;3.30;;;18.10;99.90;;;;;;5137218;27;20542;-80
2023/08/05 05:13:43;;;;;;;4.83;4.43;;;18.20;99.90;;;;;;5136876;27;20808;-82
2023/08/05 05:16:11;;;;;;;4.10;3.60;;;18.20;99.90;;;;;;5137086;27;20471;-80
2023/08/05 05:18:38;;;;;;;5.83;4.57;;;18.30;99.90;;;;;;5136479;27;20476;-80
2023/08/05 05:21:05;;;;;;;6.90;3.93;;;18.30;99.90;;;;;;5136473;27;21037;-79
2023/08/05 05:23:32;;;;;;;4.20;3.90;;;18.30;99.90;;;;;;5136899;27;20538;-80
2023/08/05 05:26:00;;;;;;;4.70;4.30;;;18.40;99.90;;;;;;5137060;27;20459;-80
2023/08/05 05:28:27;;;;;;;5.17;3.60;;;18.40;99.90;;;;;;5136657;27;20538;-81
2023/08/05 05:30:55;;;;;;;3.70;3.37;;;18.50;99.90;;;;;;5137371;27;20853;-80
2023/08/05 05:33:21;;;;;;;4.83;3.83;;;18.50;99.90;;;;;;5137130;27;21017;-80
2023/08/05 05:35:51;;;;;;;4.70;4.27;;;18.50;99.90;;;;;;5136543;27;20460;-80
2023/08/05 05:38:18;;;;;;;4.03;3.63;;;18.50;99.90;;;;;;5137037;27;20470;-80
2023/08/05 05:40:45;;;;;;;7.57;4.70;;;18.50;99.90;;;;;;5135376;27;20547;-79
2023/08/05 05:43:14;;;;;;;4.07;3.77;;;18.50;99.90;;;;;;5136323;27;20463;-80
2023/08/05 05:45:41;;;;;;;3.10;2.90;;;18.60;99.90;;;;;;5135965;27;20863;-80
2023/08/05 05:48:08;;;;;;;5.53;4.20;;;18.60;99.90;;;;;;5135891;27;20460;-80
2023/08/05 05:50:40;;;;;;;4.20;3.63;;;18.60;99.90;;;;;;5136289;27;20528;-80
2023/08/05 05:53:08;;;;;;;3.50;3.30;;;18.70;99.90;;;;;;5138075;27;20468;-80
2023/08/05 05:55:35;;;;;;;3.20;3.00;;;18.70;99.90;;;;;;5136286;27;20513;-79
2023/08/05 05:58:02;;;;;;;3.60;3.30;;;18.70;99.90;;;;;;5136231;27;20487;-79
2023/08/05 06:00:34;;;;;;;5.23;3.50;;;18.70;99.90;;;;;;5136469;27;20793;-80
2023/08/05 06:03:01;;;;;;;4.57;3.80;;;18.70;99.90;;;;;;5137199;27;20811;-78
2023/08/05 06:05:28;;;;;;;5.10;3.87;;;18.80;99.90;;;;;;5143576;27;20487;-80
2023/08/05 06:07:55;;;;;;;4.10;3.47;;;18.90;99.90;;;;;;5139850;27;20463;-80
2023/08/05 06:10:25;;;;;;;5.90;3.50;;;18.90;99.90;;;;;;5137081;27;20761;-83
2023/08/05 06:12:52;;;;;;;3.97;3.57;;;19.00;99.90;;;;;;5135630;27;20456;-79
2023/08/05 06:15:19;;;;;;;4.47;3.77;;;19.10;99.90;;;;;;5136594;27;20522;-80
2023/08/05 06:17:47;;;;;;;6.73;4.20;;;19.20;99.90;;;;;;5136802;27;20637;-81
2023/08/05 06:20:14;;;;;;;4.63;3.00;;;19.30;99.90;;;;;;5142127;27;20489;-79
2023/08/05 06:22:41;;;;;;;4.63;3.80;;;19.40;99.90;;;;;;5139637;27;20498;-82
2023/08/05 06:25:08;;;;;;;3.80;3.20;;;19.50;99.90;;;;;;5136997;27;20846;-83
2023/08/05 06:27:35;;;;;;;8.17;3.77;;;19.60;99.90;;;;;;5136279;27;20510;-80
2023/08/05 06:30:02;;;;;;;4.63;3.40;;;19.70;99.90;;;;;;5134869;27;20464;-82
2023/08/05 06:32:30;;;;;;;3.13;2.90;;;19.70;99.90;;;;;;5136149;27;20952;-79
2023/08/05 06:34:58;;;;;;;3.40;3.10;;;19.80;99.90;;;;;;5138457;27;20482;-81
2023/08/05 06:37:25;;;;;;;3.87;3.00;;;19.90;99.90;;;;;;5142471;27;20854;-82
2023/08/05 06:39:52;;;;;;;5.70;3.10;;;19.90;99.90;;;;;;5135107;27;20539;-79
2023/08/05 06:42:23;;;;;;;3.30;3.00;;;20.00;99.90;;;;;;5137268;27;20467;-80
2023/08/05 06:44:50;;;;;;;8.53;3.70;;;20.00;99.90;;;;;;5135249;27;20468;-81
2023/08/05 06:47:17;;;;;;;3.23;2.93;;;20.10;99.90;;;;;;5135731;27;20859;-80
2023/08/05 06:49:44;;;;;;;4.63;4.20;;;20.20;99.90;;;;;;5135208;27;20543;-79
2023/08/05 06:52:13;;;;;;;4.20;3.80;;;20.20;99.90;;;;;;5135681;27;20464;-82
2023/08/05 06:54:40;;;;;;;5.10;2.90;;;20.20;99.90;;;;;;5134526;27;20563;-81
2023/08/05 06:57:07;;;;;;;4.67;4.27;;;20.30;99.90;;;;;;5135240;27;20566;-79
2023/08/05 06:59:34;;;;;;;3.70;3.17;;;20.30;99.90;;;;;;5134772;27;20560;-81
2023/08/05 07:02:01;;;;;;;3.97;3.57;;;20.40;99.90;;;;;;5134382;27;20778;-81
2023/08/05 07:04:28;;;;;;;7.53;3.90;;;20.40;99.90;;;;;;5134798;27;20472;-81
2023/08/05 07:06:55;;;;;;;5.93;3.97;;;20.40;99.90;;;;;;5134218;27;20552;-81
2023/08/05 07:09:23;;;;;;;3.60;3.10;;;20.40;99.90;;;;;;5134450;27;20476;-79
2023/08/05 07:11:51;;;;;;;4.77;2.67;;;20.40;99.90;;;;;;5134417;27;20892;-79
2023/08/05 07:14:18;;;;;;;3.60;3.20;;;20.50;99.90;;;;;;5134332;27;20468;-79
2023/08/05 07:16:45;;;;;;;3.83;3.43;;;20.50;99.90;;;;;;5133717;27;20471;-79
2023/08/05 07:19:11;;;;;;;7.27;3.47;;;20.60;99.90;;;;;;5135052;27;20524;-81
2023/08/05 07:21:39;;;;;;;3.43;3.13;;;20.60;99.90;;;;;;5134631;27;20944;-79
2023/08/05 07:24:06;;;;;;;6.73;3.60;;;20.60;99.90;;;;;;5134463;27;20455;-81
2023/08/05 07:26:34;;;;;;;5.30;3.50;;;20.60;99.90;;;;;;5135101;27;20544;-79
2023/08/05 07:29:01;;;;;;;6.27;3.30;;;20.70;99.90;;;;;;5125235;27;20521;-81
2023/08/05 07:31:28;;;;;;;5.57;4.03;;;20.70;99.90;;;;;;5134903;27;20472;-81
2023/08/05 07:33:55;;;;;;;3.33;3.03;;;20.70;99.90;;;;;;5133878;27;20491;-79
2023/08/05 07:36:22;;;;;;;4.73;3.23;;;20.80;99.90;;;;;;5134457;27;20539;-81
2023/08/05 07:38:51;;;;;;;4.03;3.30;;;20.80;99.90;;;;;;5134277;27;20471;-82
2023/08/05 07:41:23;;;;;;;3.87;2.90;;;20.80;99.90;;;;;;5134303;27;20528;-80
2023/08/05 07:43:57;;;;;;;5.67;3.00;;;20.80;99.90;;;;;;5133541;27;20968;-80
2023/08/05 07:46:25;;;;;;;3.10;2.90;;;20.80;99.90;;;;;;5133598;27;20459;-82
2023/08/05 07:48:55;;;;;;;4.10;3.20;;;20.90;99.90;;;;;;5134271;27;20494;-82
2023/08/05 07:51:23;;;;;;;3.40;3.10;;;20.80;99.90;;;;;;5134967;27;20465;-82
2023/08/05 07:53:52;;;;;;;3.33;3.13;;;20.90;99.90;;;;;;5133898;27;21016;-82
2023/08/05 07:56:19;;;;;;;3.83;3.20;;;20.90;99.90;;;;;;5134622;27;20456;-82
2023/08/05 07:58:46;;;;;;;3.73;3.43;;;20.90;99.90;;;;;;5134870;27;21186;-81
2023/08/05 08:01:19;;;;;;;4.23;3.87;;;20.90;99.90;;;;;;5133760;27;20456;-80
2023/08/05 08:03:46;;;;;;;3.43;3.13;;;20.90;99.90;;;;;;5134643;27;20475;-80
2023/08/05 08:06:15;;;;;;;4.20;3.30;;;21.00;99.90;;;;;;5131688;27;20459;-82
2023/08/05 08:08:46;;;;;;;4.67;3.47;;;21.00;99.90;;;;;;5135369;27;20544;-81
2023/08/05 08:11:13;;;;;;;4.10;3.33;;;21.00;99.90;;;;;;5126149;27;20455;-80
2023/08/05 08:13:41;;;;;;;4.93;4.40;;;21.00;99.90;;;;;;5138251;27;20467;-81
2023/08/05 08:16:08;;;;;;;3.47;3.27;;;21.00;99.90;;;;;;5137459;27;20467;-80
2023/08/05 08:18:39;;;;;;;3.70;2.80;;;21.10;99.90;;;;;;5126879;27;20501;-80
2023/08/05 08:21:13;;;;;;;6.20;2.97;;;21.10;99.90;;;;;;5137071;27;20547;-82
2023/08/05 08:23:42;;;;;;;4.33;2.80;;;21.10;99.90;;;;;;5138076;27;21014;-82
2023/08/05 08:26:09;;;;;;;3.50;3.00;;;21.20;99.90;;;;;;5137703;27;20969;-83
2023/08/05 08:28:36;;;;;;;4.80;3.30;;;21.20;99.90;;;;;;5138135;27;20928;-81
2023/08/05 08:31:05;;;;;;;6.33;4.47;;;21.30;99.90;;;;;;5126386;27;20474;-81
2023/08/05 08:33:32;;;;;;;5.40;3.40;;;21.30;99.90;;;;;;5136933;27;20464;-80
2023/08/05 08:36:05;;;;;;;5.20;3.40;;;21.40;99.90;;;;;;5122265;27;20479;-80
2023/08/05 08:38:32;;;;;;;6.67;3.83;;;21.40;99.90;;;;;;5137758;27;20558;-81
2023/08/05 08:40:59;;;;;;;4.80;3.57;;;21.40;99.90;;;;;;5137222;27;20464;-82
2023/08/05 08:43:28;;;;;;;6.87;3.50;;;21.40;99.90;;;;;;5138075;27;20959;-82
2023/08/05 08:45:56;;;;;;;6.10;3.30;;;21.50;99.90;;;;;;5127478;27;20799;-82
2023/08/05 08:48:28;;;;;;;3.90;3.50;;;21.50;99.90;;;;;;5137754;27;20501;-82
2023/08/05 08:53:57;;;;;;;3.17;2.87;;;21.60;99.90;;;;;;5133540;27;20460;-82
2023/08/05 08:56:35;;;;;;;5.47;3.53;;;21.70;99.90;;;;;;5128159;27;20467;-82
2023/08/05 08:59:02;;;;;;;5.67;3.27;;;21.70;99.90;;;;;;5137329;27;20462;-82
2023/08/05 09:01:32;;;;;;;3.90;3.00;;;21.80;99.90;;;;;;5136081;27;20460;-81
2023/08/05 09:04:01;;;;;;;4.20;3.67;;;21.90;99.90;;;;;;5138320;27;20838;-82
2023/08/05 09:06:28;;;;;;;3.50;3.17;;;22.00;99.90;;;;;;5136655;27;20532;-82
2023/08/05 09:08:56;;;;;;;3.33;3.00;;;22.00;99.90;;;;;;5137014;27;20467;-82
2023/08/05 09:11:23;;;;;;;4.90;2.93;;;22.10;99.90;;;;;;5136605;27;20491;-82
2023/08/05 09:13:51;;;;;;;2.97;2.77;;;22.10;99.90;;;;;;5137268;27;21016;-80
2023/08/05 09:16:18;;;;;;;4.47;3.50;;;22.20;99.90;;;;;;5136125;27;20464;-81
2023/08/05 09:18:52;;;;;;;3.50;2.80;;;22.20;99.90;;;;;;5136854;27;21025;-81
2023/08/05 09:21:22;;;;;;;3.23;2.50;;;22.30;99.90;;;;;;5136795;27;20463;-81
2023/08/05 09:23:49;;;;;;;3.40;2.90;;;22.30;99.90;;;;;;5136195;27;20489;-82
2023/08/05 09:26:29;;;;;;;3.50;3.20;;;22.40;99.90;;;;;;5136921;27;20812;-80
2023/08/05 09:28:57;;;;;;;4.77;3.20;;;22.30;99.90;;;;;;5138182;27;20474;-82
2023/08/05 09:31:26;;;;;;;5.40;3.47;;;22.40;99.90;;;;;;5137000;27;20476;-81
2023/08/05 09:33:53;;;;;;;4.50;3.57;;;22.40;99.90;;;;;;5137567;27;20956;-82
2023/08/05 09:36:22;;;;;;;3.20;2.90;;;22.40;99.90;;;;;;5136532;27;20957;-82
2023/08/05 09:39:03;;;;;;;3.00;2.80;;;22.50;99.90;;;;;;5136205;27;21017;-82
2023/08/05 09:41:32;;;;;;;3.37;3.17;;;22.50;99.90;;;;;;5135868;27;20472;-81
2023/08/05 09:43:59;;;;;;;3.37;3.07;;;22.60;99.90;;;;;;5135931;27;20838;-79
2023/08/05 09:46:36;;;;;;;3.00;2.80;;;22.60;99.90;;;;;;5136125;27;20464;-79
2023/08/05 09:49:03;;;;;;;2.90;2.53;;;22.60;99.90;;;;;;5136650;27;20508;-82
2023/08/05 09:51:31;;;;;;;4.73;3.07;;;22.60;99.90;;;;;;5135565;27;20474;-81
2023/08/05 09:54:04;;;;;;;3.40;2.93;;;22.50;99.90;;;;;;5135906;27;20471;-80
2023/08/05 09:56:33;;;;;;;3.50;2.93;;;22.50;99.90;;;;;;5135704;27;20463;-80
2023/08/05 09:59:01;;;;;;;2.47;2.27;;;22.50;99.90;;;;;;5136382;27;20492;-82
2023/08/05 10:01:28;;;;;;;3.27;3.07;;;22.60;99.90;;;;;;5137027;27;20460;-82
2023/08/05 10:03:59;;;;;;;3.33;2.80;;;22.60;99.90;;;;;;5136985;27;20472;-82
2023/08/05 10:06:27;;;;;;;3.57;2.70;;;22.60;99.90;;;;;;5135906;27;20463;-82
2023/08/05 10:08:55;;;;;;;3.43;3.07;;;22.60;99.90;;;;;;5137267;27;20550;-82
2023/08/05 10:11:23;;;;;;;5.50;2.80;;;22.60;99.90;;;;;;5135671;27;20465;-80
2023/08/05 10:13:58;;;;;;;3.73;2.90;;;22.60;99.90;;;;;;5136541;27;20552;-80
2023/08/05 10:16:28;;;;;;;3.57;2.70;;;22.60;99.90;;;;;;5135646;27;20471;-82
2023/08/05 10:18:56;;;;;;;4.23;3.23;;;22.60;99.90;;;;;;5135918;27;20528;-80
2023/08/05 10:21:45;;;;;;;5.77;2.63;;;22.60;99.90;;;;;;5124989;27;20462;-81
2023/08/05 10:24:12;;;;;;;3.73;3.13;;;22.60;99.90;;;;;;5136994;27;20571;-82
2023/08/05 10:26:43;;;;;;;2.90;2.40;;;22.60;99.90;;;;;;5134762;27;20499;-81
2023/08/05 10:29:28;;;;;;;4.93;2.93;;;22.60;99.90;;;;;;5135939;27;20459;-80
2023/08/05 10:32:12;;;;;;;2.60;2.40;;;22.70;99.90;;;;;;5124627;27;20471;-81
2023/08/05 10:34:41;;;;;;;2.70;2.50;;;22.70;99.90;;;;;;5135004;27;20468;-81
2023/08/05 10:37:12;;;;;;;3.10;2.80;;;22.70;99.90;;;;;;5135579;27;20539;-82
2023/08/05 10:39:41;;;;;;;2.43;2.20;;;22.70;99.90;;;;;;5135268;27;20537;-81
2023/08/05 10:42:31;;;;;;;2.47;2.27;;;22.70;99.90;;;;;;5135598;27;20490;-80
2023/08/05 10:45:00;;;;;;;5.90;2.73;;;22.70;99.90;;;;;;5134284;27;20464;-80
2023/08/05 10:47:31;;;;;;;4.40;2.90;;;22.70;99.90;;;;;;5135178;27;20467;-80
2023/08/05 10:50:00;;;;;;;3.53;2.30;;;22.80;99.90;;;;;;5134732;27;20869;-81
2023/08/05 10:52:28;;;;;;;2.60;2.37;;;22.80;99.90;;;;;;5119325;27;20461;-81
2023/08/05 10:54:55;;;;;;;3.40;2.63;;;22.80;99.90;;;;;;5134562;27;20527;-80
2023/08/05 10:57:47;;;;;;;3.40;2.93;;;22.80;99.90;;;;;;5134083;27;20542;-79
2023/08/05 11:00:23;;;;;;;2.97;2.73;;;22.90;99.90;;;;;;5134954;27;20467;-80
2023/08/05 11:03:37;;;;;;;3.90;2.60;;;22.80;99.90;;;;;;5134458;27;20967;-81
2023/08/05 11:06:06;;;;;;;3.13;2.50;;;22.80;99.90;;;;;;5088295;27;20469;-81
2023/08/05 11:08:35;;;;;;;2.57;2.37;;;22.80;99.90;;;;;;5134199;27;20456;-80
2023/08/05 11:11:03;;;;;;;5.73;3.10;;;22.90;99.90;;;;;;5134513;27;20599;-79
2023/08/05 11:13:34;;;;;;;3.00;2.80;;;22.90;99.90;;;;;;5134153;27;20447;-79
2023/08/05 11:16:08;;;;;;;4.57;3.10;;;22.90;99.90;;;;;;5134786;27;20503;-79
2023/08/05 11:18:36;;;;;;;4.80;3.07;;;22.90;99.90;;;;;;5133887;27;20452;-80
2023/08/05 11:21:05;;;;;;;3.80;3.10;;;23.00;99.90;;;;;;5135970;27;20467;-79
2023/08/05 11:23:33;;;;;;;4.47;3.23;;;23.00;99.90;;;;;;5136055;27;20452;-80
2023/08/05 11:26:01;;;;;;;3.87;3.47;;;23.10;99.90;;;;;;5134568;27;20469;-81
2023/08/05 11:28:29;;;;;;;3.80;3.10;;;23.10;99.90;;;;;;5124142;27;20808;-81
2023/08/05 11:30:56;;;;;;;4.40;2.83;;;23.10;99.90;;;;;;5136153;27;20478;-81
2023/08/05 11:33:26;;;;;;;4.20;3.00;;;23.20;99.90;;;;;;5134653;27;20459;-82
2023/08/05 11:35:54;;;;;;;5.00;3.33;;;23.20;99.90;;;;;;5134585;27;20459;-82
2023/08/05 11:38:22;;;;;;;3.83;2.13;;;23.20;99.90;;;;;;5135811;27;20475;-81
2023/08/05 11:40:51;;;;;;;3.17;2.77;;;23.20;99.90;;;;;;5140649;27;20534;-81
2023/08/05 11:43:20;;;;;;;4.63;3.07;;;23.30;99.90;;;;;;5137129;27;20464;-82
2023/08/05 11:45:48;;;;;;;2.63;2.43;;;23.20;99.90;;;;;;5139141;27;20487;-82
2023/08/05 11:48:19;;;;;;;4.40;3.00;;;23.30;99.90;;;;;;5145065;27;20491;-81
2023/08/05 11:50:48;;;;;;;2.80;2.60;;;23.40;99.90;;;;;;5138904;27;20475;-82
2023/08/05 11:53:16;;;;;;;4.03;2.60;;;23.40;99.90;;;;;;5140621;27;20550;-81
2023/08/05 11:55:47;;;;;;;2.67;2.47;;;23.40;99.90;;;;;;5139059;27;21395;-82
2023/08/05 11:58:14;;;;;;;2.93;2.73;;;23.40;99.90;;;;;;5139500;27;20498;-81
2023/08/05 12:00:50;;;;;;;3.00;2.80;;;23.40;99.90;;;;;;5141333;27;20520;-81
2023/08/05 12:03:17;;;;;;;3.10;2.90;;;23.50;99.90;;;;;;5139725;27;20528;-81
2023/08/05 12:05:46;;;;;;;3.57;3.27;;;23.50;99.90;;;;;;5139439;27;20463;-82
2023/08/05 12:08:38;;;;;;;3.37;2.70;;;23.50;99.90;;;;;;5141100;27;21125;-81
2023/08/05 12:11:04;;;;;;;3.53;2.97;;;23.60;99.90;;;;;;5140369;27;20461;-80
2023/08/05 12:13:33;;;;;;;2.60;2.40;;;23.60;99.90;;;;;;5140164;27;20956;-81
2023/08/05 12:16:00;;;;;;;3.80;3.10;;;23.60;99.90;;;;;;5138847;27;20469;-81
2023/08/05 12:18:27;;;;;;;3.07;2.77;;;23.60;99.90;;;;;;5127538;27;20565;-80
2023/08/05 12:20:54;;;;;;;3.40;2.80;;;23.60;99.90;;;;;;5138767;27;20541;-82
2023/08/05 12:23:24;;;;;;;2.60;2.40;;;23.60;99.90;;;;;;5138613;27;20467;-81
2023/08/05 12:25:58;;;;;;;2.97;2.63;;;23.60;99.90;;;;;;5128106;27;20451;-80
2023/08/05 12:28:25;;;;;;;3.60;2.93;;;23.60;99.90;;;;;;5138483;27;20551;-80
2023/08/05 12:30:52;;;;;;;4.37;3.33;;;23.60;99.90;;;;;;5127207;27;20466;-81
2023/08/05 12:33:21;;;;;;;2.90;2.60;;;23.60;99.90;;;;;;5136245;27;20774;-80
2023/08/05 12:35:47;;;;;;;2.90;2.70;;;23.60;99.90;;;;;;5137586;27;20459;-80
2023/08/05 12:38:14;;;;;;;3.37;3.07;;;23.60;99.90;;;;;;5127486;27;20786;-81
2023/08/05 12:40:44;;;;;;;4.00;3.37;;;23.60;99.90;;;;;;5137233;27;20459;-81
2023/08/05 12:43:13;;;;;;;3.07;2.87;;;23.60;99.90;;;;;;5137872;27;20471;-81
2023/08/05 12:45:43;;;;;;;2.80;2.60;;;23.50;99.90;;;;;;5136583;27;20756;-80
2023/08/05 12:48:10;;;;;;;3.10;2.90;;;23.50;99.90;;;;;;5137845;27;20516;-80
2023/08/05 12:50:38;;;;;;;4.83;3.00;;;23.50;99.90;;;;;;5136423;27;20782;-80
2023/08/05 12:53:05;;;;;;;3.40;3.13;;;23.50;99.90;;;;;;5137875;27;20479;-82
2023/08/05 12:55:32;;;;;;;2.73;2.53;;;23.50;99.90;;;;;;5137074;27;20498;-80